createdAt,value
2018-11-25T00:00:49.652Z,86.10
2018-11-25T00:01:49.620Z,86.10
2018-11-25T00:02:49.584Z,84.70
2018-11-25T00:03:49.548Z,84.30
2018-11-25T00:04:49.513Z,83.40
2018-11-25T00:05:49.481Z,83.20
2018-11-25T00:06:49.448Z,86.70
2018-11-25T00:07:49.410Z,88.80
2018-11-25T00:08:49.377Z,92.20
2018-11-25T00:09:49.343Z,87.60
2018-11-25T00:10:49.307Z,87.40
2018-11-25T00:11:49.272Z,86.00
2018-11-25T00:12:49.239Z,86.20
2018-11-25T00:13:49.204Z,87.70
2018-11-25T00:14:49.169Z,95.70
2018-11-25T00:15:49.138Z,93.30
2018-11-25T00:16:49.103Z,87.30
2018-11-25T00:17:49.066Z,86.50
2018-11-25T00:18:49.031Z,91.40
2018-11-25T00:19:49.000Z,83.20
2018-11-25T00:20:48.966Z,87.30
2018-11-25T00:21:48.928Z,90.40
2018-11-25T00:22:48.895Z,88.70
2018-11-25T00:23:48.858Z,91.00
2018-11-25T00:24:48.826Z,85.30
2018-11-25T00:25:48.790Z,81.70
2018-11-25T00:26:48.757Z,86.70
2018-11-25T00:27:48.722Z,87.90
2018-11-25T00:28:48.687Z,85.00
2018-11-25T00:29:48.652Z,85.40
2018-11-25T00:30:48.617Z,82.60
2018-11-25T00:31:48.583Z,91.10
2018-11-25T00:32:48.548Z,87.90
2018-11-25T00:33:48.515Z,87.70
2018-11-25T00:34:48.480Z,89.30
2018-11-25T00:35:48.445Z,84.90
2018-11-25T00:36:48.412Z,82.70
2018-11-25T00:37:48.972Z,82.60
2018-11-25T00:38:48.361Z,86.60
2018-11-25T00:39:48.307Z,88.50
2018-11-25T00:40:48.273Z,88.90
2018-11-25T00:41:48.240Z,87.50
2018-11-25T00:42:48.204Z,86.20
2018-11-25T00:43:48.169Z,83.00
2018-11-25T00:44:48.135Z,85.50
2018-11-25T00:45:48.101Z,85.60
2018-11-25T00:46:48.068Z,77.80
2018-11-25T00:47:48.033Z,83.20
2018-11-25T00:48:47.997Z,83.80
2018-11-25T00:49:47.964Z,80.20
2018-11-25T00:50:47.929Z,83.40
2018-11-25T00:51:47.896Z,84.20
2018-11-25T00:52:47.861Z,83.80
2018-11-25T00:53:47.827Z,84.30
2018-11-25T00:54:47.796Z,85.60
2018-11-25T00:55:47.757Z,85.70
2018-11-25T00:56:47.724Z,82.90
2018-11-25T00:57:47.691Z,84.00
2018-11-25T00:58:47.655Z,83.70
2018-11-25T00:59:47.619Z,85.60
2018-11-25T01:00:47.585Z,82.40
2018-11-25T01:01:47.551Z,82.20
2018-11-25T01:02:47.517Z,84.40
2018-11-25T01:03:47.483Z,82.80
2018-11-25T01:04:47.448Z,86.90
2018-11-25T01:05:47.414Z,90.50
2018-11-25T01:06:47.384Z,85.30
2018-11-25T01:07:47.346Z,87.70
2018-11-25T01:08:47.309Z,90.80
2018-11-25T01:09:47.276Z,88.90
2018-11-25T01:10:47.242Z,88.80
2018-11-25T01:11:47.206Z,87.30
2018-11-25T01:12:47.175Z,86.80
2018-11-25T01:13:47.144Z,89.30
2018-11-25T01:14:47.105Z,84.10
2018-11-25T01:15:47.068Z,87.10
2018-11-25T01:16:47.034Z,88.40
2018-11-25T01:17:47.001Z,81.50
2018-11-25T01:18:46.966Z,87.40
2018-11-25T01:19:46.932Z,85.70
2018-11-25T01:20:46.902Z,91.30
2018-11-25T01:21:46.863Z,92.00
2018-11-25T01:22:46.829Z,87.10
2018-11-25T01:23:46.794Z,91.00
2018-11-25T01:24:46.761Z,91.50
2018-11-25T01:25:46.725Z,89.20
2018-11-25T01:26:46.692Z,89.30
2018-11-25T01:27:46.657Z,88.30
2018-11-25T01:28:46.623Z,91.20
2018-11-25T01:29:46.588Z,93.50
2018-11-25T01:30:46.553Z,94.60
2018-11-25T01:31:46.521Z,99.60
2018-11-25T01:32:46.490Z,91.00
2018-11-25T01:33:46.452Z,93.40
2018-11-25T01:34:46.416Z,93.80
2018-11-25T01:35:46.381Z,96.50
2018-11-25T01:36:46.348Z,95.10
2018-11-25T01:37:46.317Z,95.50
2018-11-25T01:38:46.280Z,94.60
2018-11-25T01:39:46.245Z,93.90
2018-11-25T01:40:46.209Z,91.90
2018-11-25T01:41:46.176Z,92.90
2018-11-25T01:42:46.148Z,93.60
2018-11-25T01:43:46.106Z,94.40
2018-11-25T01:44:46.071Z,95.00
2018-11-25T01:45:46.037Z,94.80
2018-11-25T01:46:46.004Z,93.80
2018-11-25T01:47:45.975Z,94.30
2018-11-25T01:48:45.935Z,93.60
2018-11-25T01:49:45.901Z,88.60
2018-11-25T01:50:45.867Z,94.10
2018-11-25T01:51:45.830Z,96.70
2018-11-25T01:52:45.800Z,90.30
2018-11-25T01:53:45.763Z,94.90
2018-11-25T01:54:45.730Z,93.50
2018-11-25T01:55:45.693Z,93.60
2018-11-25T01:56:45.660Z,96.30
2018-11-25T01:57:45.626Z,92.10
2018-11-25T01:58:45.592Z,96.10
2018-11-25T01:59:45.556Z,98.70
2018-11-25T02:00:45.521Z,97.40
2018-11-25T02:01:45.511Z,99.60
2018-11-25T02:02:45.453Z,98.20
2018-11-25T02:03:45.420Z,96.40
2018-11-25T02:04:45.385Z,94.50
2018-11-25T02:05:45.351Z,93.60
2018-11-25T02:06:45.315Z,100.40
2018-11-25T02:07:45.293Z,95.20
2018-11-25T02:08:45.247Z,98.80
2018-11-25T02:09:45.213Z,101.80
2018-11-25T02:10:45.179Z,101.50
2018-11-25T02:11:45.144Z,94.80
2018-11-25T02:12:45.112Z,97.10
2018-11-25T02:13:45.077Z,96.20
2018-11-25T02:14:45.042Z,99.70
2018-11-25T02:15:45.005Z,101.90
2018-11-25T02:16:44.973Z,100.50
2018-11-25T02:17:44.939Z,98.90
2018-11-25T02:18:44.903Z,107.00
2018-11-25T02:19:44.868Z,104.60
2018-11-25T02:20:44.839Z,107.60
2018-11-25T02:21:44.800Z,106.50
2018-11-25T02:22:44.767Z,108.10
2018-11-25T02:23:44.731Z,108.00
2018-11-25T02:24:44.697Z,108.70
2018-11-25T02:25:44.662Z,109.90
2018-11-25T02:26:44.630Z,111.20
2018-11-25T02:27:44.597Z,110.30
2018-11-25T02:28:44.561Z,112.90
2018-11-25T02:29:44.528Z,102.10
2018-11-25T02:30:44.491Z,109.90
2018-11-25T02:31:44.462Z,107.10
2018-11-25T02:32:44.424Z,114.50
2018-11-25T02:33:44.390Z,111.60
2018-11-25T02:34:44.354Z,105.40
2018-11-25T02:35:44.318Z,107.30
2018-11-25T02:36:44.285Z,108.70
2018-11-25T02:37:44.253Z,115.80
2018-11-25T02:38:44.216Z,116.60
2018-11-25T02:39:44.182Z,121.40
2018-11-25T02:40:44.148Z,117.30
2018-11-25T02:41:44.114Z,121.50
2018-11-25T02:42:44.079Z,121.70
2018-11-25T02:43:44.044Z,123.30
2018-11-25T02:44:44.011Z,113.90
2018-11-25T02:45:43.976Z,122.60
2018-11-25T02:46:43.942Z,123.00
2018-11-25T02:47:43.908Z,126.70
2018-11-25T02:48:43.873Z,129.40
2018-11-25T02:49:43.838Z,138.50
2018-11-25T02:50:43.805Z,122.00
2018-11-25T02:51:43.768Z,129.40
2018-11-25T02:52:43.734Z,122.00
2018-11-25T02:53:43.701Z,134.10
2018-11-25T02:54:43.668Z,136.70
2018-11-25T02:55:43.632Z,134.30
2018-11-25T02:56:43.598Z,138.20
2018-11-25T02:57:43.564Z,134.10
2018-11-25T02:58:43.528Z,147.10
2018-11-25T02:59:43.495Z,145.40
2018-11-25T03:00:43.459Z,137.70
2018-11-25T03:01:43.425Z,129.10
2018-11-25T03:02:43.391Z,126.30
2018-11-25T03:03:43.355Z,127.00
2018-11-25T03:04:43.323Z,131.70
2018-11-25T03:05:43.288Z,120.60
2018-11-25T03:06:43.253Z,129.20
2018-11-25T03:07:43.220Z,131.50
2018-11-25T03:08:43.185Z,124.80
2018-11-25T03:09:43.150Z,123.60
2018-11-25T03:10:43.116Z,115.50
2018-11-25T03:11:43.081Z,119.00
2018-11-25T03:12:43.046Z,119.60
2018-11-25T03:13:43.012Z,119.40
2018-11-25T03:14:42.979Z,119.30
2018-11-25T03:15:42.945Z,118.70
2018-11-25T03:16:42.908Z,115.50
2018-11-25T03:17:42.878Z,112.80
2018-11-25T03:18:42.840Z,115.10
2018-11-25T03:19:42.805Z,110.40
2018-11-25T03:20:42.771Z,113.60
2018-11-25T03:21:42.737Z,117.30
2018-11-25T03:22:42.705Z,110.60
2018-11-25T03:23:42.668Z,116.60
2018-11-25T03:24:42.633Z,111.30
2018-11-25T03:25:42.599Z,110.30
2018-11-25T03:26:42.565Z,113.00
2018-11-25T03:27:42.533Z,110.40
2018-11-25T03:28:42.500Z,110.80
2018-11-25T03:29:42.463Z,107.80
2018-11-25T03:30:42.428Z,109.60
2018-11-25T03:31:42.391Z,109.40
2018-11-25T03:32:42.362Z,101.30
2018-11-25T03:33:42.324Z,97.30
2018-11-25T03:34:42.289Z,105.20
2018-11-25T03:35:42.254Z,99.80
2018-11-25T03:36:42.218Z,102.20
2018-11-25T03:37:42.186Z,105.40
2018-11-25T03:38:42.152Z,107.60
2018-11-25T03:39:42.115Z,106.40
2018-11-25T03:40:42.082Z,106.60
2018-11-25T03:41:42.055Z,103.60
2018-11-25T03:42:42.013Z,93.10
2018-11-25T03:43:41.982Z,93.60
2018-11-25T03:44:41.959Z,96.20
2018-11-25T03:45:41.909Z,102.70
2018-11-25T03:46:41.876Z,101.80
2018-11-25T03:47:41.841Z,106.10
2018-11-25T03:48:41.807Z,97.00
2018-11-25T03:49:41.772Z,94.70
2018-11-25T03:50:41.739Z,96.70
2018-11-25T03:51:41.703Z,100.10
2018-11-25T03:52:41.668Z,95.60
2018-11-25T03:53:41.636Z,96.20
2018-11-25T03:54:41.599Z,97.10
2018-11-25T03:55:41.566Z,100.10
2018-11-25T03:56:41.535Z,95.00
2018-11-25T03:57:41.497Z,97.00
2018-11-25T03:58:41.463Z,94.80
2018-11-25T03:59:41.427Z,95.40
2018-11-25T04:00:41.392Z,92.20
2018-11-25T04:01:41.358Z,87.90
2018-11-25T04:02:41.324Z,92.90
2018-11-25T04:03:41.289Z,92.10
2018-11-25T04:04:41.255Z,91.60
2018-11-25T04:05:41.220Z,94.50
2018-11-25T04:06:41.186Z,89.30
2018-11-25T04:07:41.154Z,86.40
2018-11-25T04:08:41.116Z,87.90
2018-11-25T04:09:41.083Z,87.40
2018-11-25T04:10:41.048Z,81.90
2018-11-25T04:11:41.015Z,90.10
2018-11-25T04:12:40.979Z,91.70
2018-11-25T04:13:40.945Z,89.30
2018-11-25T04:14:40.910Z,90.80
2018-11-25T04:15:40.876Z,88.20
2018-11-25T04:16:40.842Z,84.30
2018-11-25T04:17:40.806Z,81.10
2018-11-25T04:18:40.773Z,85.80
2018-11-25T04:19:40.739Z,85.00
2018-11-25T04:20:40.703Z,85.90
2018-11-25T04:21:40.669Z,89.20
2018-11-25T04:22:40.634Z,84.60
2018-11-25T04:23:40.599Z,82.90
2018-11-25T04:24:40.565Z,88.00
2018-11-25T04:25:40.531Z,89.70
2018-11-25T04:26:40.496Z,80.90
2018-11-25T04:27:40.462Z,84.40
2018-11-25T04:28:40.428Z,83.90
2018-11-25T04:29:40.393Z,86.50
2018-11-25T04:30:40.359Z,85.60
2018-11-25T04:31:40.323Z,91.80
2018-11-25T04:32:40.290Z,84.20
2018-11-25T04:33:40.256Z,88.40
2018-11-25T04:34:40.220Z,86.40
2018-11-25T04:35:40.186Z,81.70
2018-11-25T04:36:40.152Z,82.80
2018-11-25T04:37:40.117Z,81.60
2018-11-25T04:38:40.084Z,75.20
2018-11-25T04:39:40.047Z,78.90
2018-11-25T04:40:40.014Z,79.00
2018-11-25T04:41:39.979Z,80.50
2018-11-25T04:42:39.946Z,74.80
2018-11-25T04:43:39.909Z,78.10
2018-11-25T04:44:39.876Z,80.30
2018-11-25T04:45:39.842Z,82.20
2018-11-25T04:46:39.806Z,83.70
2018-11-25T04:47:39.773Z,84.80
2018-11-25T04:48:39.738Z,90.10
2018-11-25T04:49:39.709Z,82.10
2018-11-25T04:50:39.669Z,77.40
2018-11-25T04:51:39.634Z,79.60
2018-11-25T04:52:39.599Z,80.60
2018-11-25T04:53:39.564Z,80.10
2018-11-25T04:54:39.532Z,80.30
2018-11-25T04:55:39.496Z,78.50
2018-11-25T04:56:39.461Z,80.50
2018-11-25T04:57:39.430Z,80.30
2018-11-25T04:58:39.392Z,80.30
2018-11-25T04:59:39.356Z,83.50
2018-11-25T05:00:39.323Z,79.60
2018-11-25T05:01:39.291Z,85.00
2018-11-25T05:02:39.255Z,80.30
2018-11-25T05:03:39.218Z,82.70
2018-11-25T05:04:39.185Z,78.50
2018-11-25T05:05:39.152Z,76.90
2018-11-25T05:06:39.116Z,76.20
2018-11-25T05:07:39.080Z,78.60
2018-11-25T05:08:39.050Z,78.60
2018-11-25T05:09:39.015Z,79.00
2018-11-25T05:10:38.978Z,78.60
2018-11-25T05:11:38.941Z,80.90
2018-11-25T05:12:38.908Z,80.00
2018-11-25T05:13:38.873Z,78.60
2018-11-25T05:14:38.840Z,78.60
2018-11-25T05:15:38.805Z,78.10
2018-11-25T05:16:38.769Z,83.10
2018-11-25T05:17:38.735Z,80.10
2018-11-25T05:18:38.702Z,81.50
2018-11-25T05:19:38.666Z,75.90
2018-11-25T05:20:38.633Z,78.30
2018-11-25T05:21:38.598Z,78.80
2018-11-25T05:22:38.563Z,83.60
2018-11-25T05:23:38.529Z,78.40
2018-11-25T05:24:38.494Z,79.20
2018-11-25T05:25:38.459Z,78.70
2018-11-25T05:26:38.432Z,83.20
2018-11-25T05:27:38.390Z,79.80
2018-11-25T05:28:38.356Z,79.70
2018-11-25T05:29:38.321Z,82.20
2018-11-25T05:30:38.290Z,80.70
2018-11-25T05:31:38.252Z,75.90
2018-11-25T05:32:38.220Z,83.20
2018-11-25T05:33:38.184Z,85.50
2018-11-25T05:34:38.150Z,78.10
2018-11-25T05:35:38.116Z,81.10
2018-11-25T05:36:38.081Z,85.60
2018-11-25T05:37:38.047Z,79.10
2018-11-25T05:38:38.013Z,82.50
2018-11-25T05:39:37.976Z,79.60
2018-11-25T05:40:37.943Z,81.70
2018-11-25T05:41:37.912Z,82.00
2018-11-25T05:42:37.873Z,86.20
2018-11-25T05:43:37.840Z,86.80
2018-11-25T05:44:37.804Z,80.40
2018-11-25T05:45:37.772Z,82.60
2018-11-25T05:46:37.736Z,84.60
2018-11-25T05:47:37.703Z,81.80
2018-11-25T05:48:37.668Z,82.20
2018-11-25T05:49:37.634Z,85.20
2018-11-25T05:50:37.602Z,86.00
2018-11-25T05:51:37.564Z,86.20
2018-11-25T05:52:37.529Z,86.90
2018-11-25T05:53:37.498Z,85.80
2018-11-25T05:54:37.461Z,83.50
2018-11-25T05:55:37.426Z,86.30
2018-11-25T05:56:37.392Z,83.10
2018-11-25T05:57:37.358Z,88.70
2018-11-25T05:58:37.323Z,85.80
2018-11-25T05:59:37.289Z,84.30
2018-11-25T06:00:37.254Z,89.10
2018-11-25T06:01:37.221Z,88.80
2018-11-25T06:02:37.185Z,92.90
2018-11-25T06:03:37.151Z,82.30
2018-11-25T06:04:37.117Z,80.10
2018-11-25T06:05:37.082Z,83.80
2018-11-25T06:06:37.048Z,87.90
2018-11-25T06:07:37.013Z,86.70
2018-11-25T06:08:36.977Z,88.40
2018-11-25T06:09:36.944Z,88.10
2018-11-25T06:10:36.913Z,86.50
2018-11-25T06:11:36.875Z,88.30
2018-11-25T06:12:36.841Z,86.60
2018-11-25T06:13:36.806Z,88.40
2018-11-25T06:14:36.773Z,91.10
2018-11-25T06:15:36.737Z,87.70
2018-11-25T06:16:36.704Z,89.90
2018-11-25T06:17:36.669Z,94.40
2018-11-25T06:18:36.635Z,94.20
2018-11-25T06:19:36.601Z,86.80
2018-11-25T06:20:36.580Z,89.60
2018-11-25T06:21:36.535Z,90.30
2018-11-25T06:22:36.499Z,89.60
2018-11-25T06:23:36.463Z,84.70
2018-11-25T06:24:36.428Z,86.70
2018-11-25T06:25:36.396Z,87.70
2018-11-25T06:26:36.361Z,88.20
2018-11-25T06:27:38.213Z,89.70
2018-11-25T06:28:36.291Z,88.70
2018-11-25T06:29:36.259Z,84.80
2018-11-25T06:30:36.223Z,84.40
2018-11-25T06:31:36.189Z,86.30
2018-11-25T06:32:36.154Z,89.40
2018-11-25T06:33:36.124Z,86.10
2018-11-25T06:34:36.089Z,84.70
2018-11-25T06:35:36.052Z,86.60
2018-11-25T06:36:36.018Z,88.90
2018-11-25T06:37:35.984Z,92.10
2018-11-25T06:38:35.949Z,89.60
2018-11-25T06:39:35.918Z,88.30
2018-11-25T06:40:35.880Z,82.20
2018-11-25T06:41:35.847Z,86.40
2018-11-25T06:42:35.815Z,88.20
2018-11-25T06:43:35.780Z,82.80
2018-11-25T06:44:35.743Z,85.60
2018-11-25T06:45:35.710Z,85.20
2018-11-25T06:46:35.677Z,83.00
2018-11-25T06:47:35.641Z,85.40
2018-11-25T06:48:35.608Z,86.20
2018-11-25T06:49:35.575Z,86.60
2018-11-25T06:50:35.546Z,85.90
2018-11-25T06:51:35.508Z,86.80
2018-11-25T06:52:35.471Z,85.90
2018-11-25T06:53:35.437Z,84.90
2018-11-25T06:54:35.404Z,89.40
2018-11-25T06:55:35.368Z,91.40
2018-11-25T06:56:35.340Z,90.20
2018-11-25T06:57:35.301Z,86.10
2018-11-25T06:58:35.266Z,94.50
2018-11-25T06:59:35.232Z,90.60
2018-11-25T07:00:35.199Z,94.50
2018-11-25T07:01:35.163Z,93.00
2018-11-25T07:02:35.130Z,91.40
2018-11-25T07:03:35.095Z,95.00
2018-11-25T07:04:35.061Z,96.20
2018-11-25T07:05:35.028Z,94.90
2018-11-25T07:06:34.992Z,94.50
2018-11-25T07:07:34.960Z,99.20
2018-11-25T07:08:34.924Z,97.00
2018-11-25T07:09:34.895Z,95.10
2018-11-25T07:10:34.856Z,99.00
2018-11-25T07:11:34.822Z,100.30
2018-11-25T07:12:34.787Z,98.70
2018-11-25T07:13:34.753Z,97.70
2018-11-25T07:14:34.727Z,99.50
2018-11-25T07:15:34.687Z,102.80
2018-11-25T07:16:34.651Z,104.60
2018-11-25T07:17:34.618Z,98.80
2018-11-25T07:18:34.584Z,97.10
2018-11-25T07:19:34.548Z,98.50
2018-11-25T07:20:34.515Z,99.80
2018-11-25T07:21:34.485Z,98.40
2018-11-25T07:22:34.447Z,97.60
2018-11-25T07:23:34.411Z,94.50
2018-11-25T07:24:34.379Z,94.80
2018-11-25T07:25:34.343Z,100.10
2018-11-25T07:26:34.310Z,94.40
2018-11-25T07:27:34.276Z,99.10
2018-11-25T07:28:34.241Z,100.30
2018-11-25T07:29:34.207Z,102.40
2018-11-25T07:30:34.174Z,97.50
2018-11-25T07:31:34.138Z,96.80
2018-11-25T07:32:34.104Z,100.70
2018-11-25T07:33:34.071Z,98.70
2018-11-25T07:34:34.038Z,97.90
2018-11-25T07:35:34.003Z,97.70
2018-11-25T07:36:33.969Z,101.30
2018-11-25T07:37:33.937Z,104.80
2018-11-25T07:38:33.901Z,96.10
2018-11-25T07:39:33.865Z,99.20
2018-11-25T07:40:35.201Z,105.30
2018-11-25T07:41:33.797Z,111.20
2018-11-25T07:42:33.764Z,111.10
2018-11-25T07:43:33.730Z,108.20
2018-11-25T07:44:33.696Z,107.40
2018-11-25T07:45:33.662Z,103.80
2018-11-25T07:46:33.629Z,100.70
2018-11-25T07:47:33.592Z,104.60
2018-11-25T07:48:33.559Z,106.70
2018-11-25T07:49:33.525Z,104.10
2018-11-25T07:50:33.491Z,101.40
2018-11-25T07:51:33.456Z,102.40
2018-11-25T07:52:33.423Z,105.40
2018-11-25T07:53:33.389Z,101.50
2018-11-25T07:54:33.356Z,98.30
2018-11-25T07:55:33.325Z,105.50
2018-11-25T07:56:33.294Z,105.10
2018-11-25T07:57:33.253Z,103.10
2018-11-25T07:58:33.217Z,100.40
2018-11-25T07:59:33.185Z,101.30
2018-11-25T08:00:33.150Z,103.70
2018-11-25T08:01:33.116Z,106.40
2018-11-25T08:02:33.095Z,103.10
2018-11-25T08:03:33.047Z,102.10
2018-11-25T08:04:33.014Z,102.40
2018-11-25T08:05:32.984Z,99.40
2018-11-25T08:06:32.944Z,97.90
2018-11-25T08:07:32.910Z,96.00
2018-11-25T08:08:32.877Z,94.80
2018-11-25T08:09:32.843Z,98.80
2018-11-25T08:10:32.809Z,102.40
2018-11-25T08:11:32.773Z,103.20
2018-11-25T08:12:32.740Z,101.90
2018-11-25T08:13:32.705Z,100.00
2018-11-25T08:14:32.678Z,101.20
2018-11-25T08:15:32.638Z,97.50
2018-11-25T08:16:32.604Z,100.20
2018-11-25T08:17:32.574Z,99.20
2018-11-25T08:18:32.538Z,99.90
2018-11-25T08:19:32.502Z,99.70
2018-11-25T08:20:32.469Z,96.60
2018-11-25T08:21:32.434Z,99.30
2018-11-25T08:22:32.409Z,101.80
2018-11-25T08:23:32.367Z,98.20
2018-11-25T08:24:32.332Z,96.80
2018-11-25T08:25:32.300Z,98.80
2018-11-25T08:26:32.267Z,100.70
2018-11-25T08:27:32.232Z,96.40
2018-11-25T08:28:32.197Z,92.50
2018-11-25T08:29:32.165Z,97.00
2018-11-25T08:30:32.130Z,97.10
2018-11-25T08:31:32.095Z,96.90
2018-11-25T08:32:32.063Z,94.70
2018-11-25T08:33:32.032Z,96.00
2018-11-25T08:34:32.005Z,100.00
2018-11-25T08:35:31.961Z,99.00
2018-11-25T08:36:31.927Z,104.40
2018-11-25T08:37:31.895Z,106.90
2018-11-25T08:38:31.861Z,108.80
2018-11-25T08:39:31.827Z,105.40
2018-11-25T08:40:31.793Z,101.60
2018-11-25T08:41:31.760Z,99.20
2018-11-25T08:42:31.727Z,102.70
2018-11-25T08:43:31.690Z,94.00
2018-11-25T08:44:31.658Z,95.40
2018-11-25T08:45:31.625Z,101.40
2018-11-25T08:46:31.591Z,104.10
2018-11-25T08:47:31.557Z,105.50
2018-11-25T08:48:31.524Z,103.00
2018-11-25T08:49:31.489Z,96.50
2018-11-25T08:50:31.457Z,99.90
2018-11-25T08:51:32.079Z,94.70
2018-11-25T08:52:31.389Z,97.90
2018-11-25T08:53:31.355Z,97.50
2018-11-25T08:54:31.324Z,92.40
2018-11-25T08:55:31.293Z,111.50
2018-11-25T08:56:31.254Z,106.90
2018-11-25T08:57:31.231Z,105.30
2018-11-25T08:58:31.190Z,111.60
2018-11-25T08:59:31.153Z,99.70
2018-11-25T09:00:31.122Z,91.20
2018-11-25T09:01:31.087Z,90.10
2018-11-25T09:02:31.054Z,98.00
2018-11-25T09:03:31.017Z,104.70
2018-11-25T09:04:30.989Z,99.10
2018-11-25T09:05:30.951Z,98.30
2018-11-25T09:06:30.919Z,96.50
2018-11-25T09:07:30.882Z,97.10
2018-11-25T09:08:30.851Z,97.00
2018-11-25T09:09:30.830Z,95.90
2018-11-25T09:10:30.786Z,97.20
2018-11-25T09:11:30.749Z,101.40
2018-11-25T09:12:30.719Z,99.20
2018-11-25T09:13:30.714Z,98.10
2018-11-25T09:14:30.648Z,106.80
2018-11-25T09:15:30.614Z,102.60
2018-11-25T09:16:30.580Z,108.90
2018-11-25T09:17:30.548Z,95.50
2018-11-25T09:18:30.514Z,90.70
2018-11-25T09:19:30.480Z,97.60
2018-11-25T09:20:30.449Z,94.40
2018-11-25T09:21:30.413Z,96.80
2018-11-25T09:22:30.381Z,93.00
2018-11-25T09:23:30.343Z,93.00
2018-11-25T09:24:30.311Z,96.70
2018-11-25T09:25:30.278Z,90.30
2018-11-25T09:26:30.244Z,97.30
2018-11-25T09:27:30.211Z,97.90
2018-11-25T09:28:30.177Z,90.90
2018-11-25T09:29:30.142Z,92.50
2018-11-25T09:30:30.111Z,96.10
2018-11-25T09:31:30.076Z,94.90
2018-11-25T09:32:30.041Z,103.50
2018-11-25T09:33:30.010Z,131.50
2018-11-25T09:34:29.975Z,127.80
2018-11-25T09:35:29.940Z,105.70
2018-11-25T09:36:29.906Z,95.90
2018-11-25T09:37:29.873Z,99.00
2018-11-25T09:38:29.841Z,105.30
2018-11-25T09:39:29.813Z,98.70
2018-11-25T09:40:29.785Z,99.20
2018-11-25T09:41:29.744Z,95.70
2018-11-25T09:42:29.705Z,96.00
2018-11-25T09:43:29.673Z,93.00
2018-11-25T09:44:29.638Z,92.60
2018-11-25T09:45:29.603Z,92.10
2018-11-25T09:46:29.572Z,89.20
2018-11-25T09:47:29.538Z,84.70
2018-11-25T09:48:29.504Z,91.40
2018-11-25T09:49:29.473Z,94.80
2018-11-25T09:50:29.443Z,91.90
2018-11-25T09:51:29.404Z,90.80
2018-11-25T09:52:29.371Z,90.90
2018-11-25T09:53:29.340Z,92.60
2018-11-25T09:54:29.305Z,94.10
2018-11-25T09:55:29.271Z,99.80
2018-11-25T09:56:29.243Z,96.00
2018-11-25T09:57:29.206Z,85.80
2018-11-25T09:58:29.174Z,85.90
2018-11-25T09:59:29.138Z,85.60
2018-11-25T10:00:29.104Z,88.20
2018-11-25T10:01:29.075Z,84.10
2018-11-25T10:02:29.038Z,88.30
2018-11-25T10:03:29.003Z,87.40
2018-11-25T10:04:28.971Z,88.70
2018-11-25T10:05:28.938Z,81.80
2018-11-25T10:06:28.904Z,87.30
2018-11-25T10:07:28.871Z,84.60
2018-11-25T10:08:28.836Z,88.90
2018-11-25T10:09:28.804Z,82.70
2018-11-25T10:10:28.771Z,87.90
2018-11-25T10:11:28.741Z,85.70
2018-11-25T10:12:28.708Z,85.70
2018-11-25T10:13:28.671Z,85.30
2018-11-25T10:14:28.636Z,91.00
2018-11-25T10:15:28.606Z,98.10
2018-11-25T10:16:28.568Z,102.60
2018-11-25T10:17:28.537Z,90.40
2018-11-25T10:18:28.503Z,96.70
2018-11-25T10:19:28.469Z,99.30
2018-11-25T10:20:28.435Z,102.80
2018-11-25T10:21:28.404Z,91.70
2018-11-25T10:22:28.367Z,85.80
2018-11-25T10:23:28.336Z,95.00
2018-11-25T10:24:28.304Z,91.40
2018-11-25T10:25:28.270Z,94.20
2018-11-25T10:26:28.234Z,92.80
2018-11-25T10:27:28.201Z,92.10
2018-11-25T10:28:28.166Z,91.30
2018-11-25T10:29:28.136Z,85.60
2018-11-25T10:30:28.101Z,86.50
2018-11-25T10:31:28.067Z,86.10
2018-11-25T10:32:28.034Z,87.30
2018-11-25T10:33:28.003Z,87.30
2018-11-25T10:34:27.966Z,101.50
2018-11-25T10:35:27.935Z,118.20
2018-11-25T10:36:27.899Z,116.50
2018-11-25T10:37:27.867Z,105.20
2018-11-25T10:38:27.833Z,126.90
2018-11-25T10:39:27.798Z,128.20
2018-11-25T10:40:27.764Z,121.50
2018-11-25T10:41:27.738Z,105.80
2018-11-25T10:42:27.699Z,94.60
2018-11-25T10:43:27.663Z,88.80
2018-11-25T10:44:27.631Z,89.80
2018-11-25T10:45:27.597Z,93.90
2018-11-25T10:46:27.563Z,95.60
2018-11-25T10:47:27.532Z,93.70
2018-11-25T10:48:27.496Z,93.80
2018-11-25T10:49:27.464Z,93.70
2018-11-25T10:50:27.429Z,91.40
2018-11-25T10:51:27.396Z,91.90
2018-11-25T10:52:27.366Z,89.50
2018-11-25T10:53:27.328Z,89.90
2018-11-25T10:54:27.295Z,88.00
2018-11-25T10:55:27.260Z,88.00
2018-11-25T10:56:27.232Z,89.70
2018-11-25T10:57:27.194Z,88.00
2018-11-25T10:58:27.161Z,88.50
2018-11-25T10:59:27.129Z,93.20
2018-11-25T11:00:27.097Z,96.80
2018-11-25T11:01:27.060Z,93.90
2018-11-25T11:02:27.029Z,88.80
2018-11-25T11:03:26.992Z,86.10
2018-11-25T11:04:26.960Z,90.60
2018-11-25T11:05:26.926Z,92.80
2018-11-25T11:06:26.893Z,93.50
2018-11-25T11:07:26.860Z,90.20
2018-11-25T11:08:26.824Z,94.00
2018-11-25T11:09:26.793Z,90.80
2018-11-25T11:10:26.758Z,91.50
2018-11-25T11:11:26.724Z,89.40
2018-11-25T11:12:26.691Z,89.90
2018-11-25T11:13:26.657Z,92.00
2018-11-25T11:14:26.623Z,94.90
2018-11-25T11:15:26.591Z,89.00
2018-11-25T11:16:26.557Z,94.70
2018-11-25T11:17:26.526Z,93.40
2018-11-25T11:18:26.493Z,97.40
2018-11-25T11:19:26.456Z,96.20
2018-11-25T11:20:26.421Z,96.00
2018-11-25T11:21:26.653Z,102.40
2018-11-25T11:22:26.358Z,104.10
2018-11-25T11:23:26.322Z,103.70
2018-11-25T11:24:26.287Z,103.40
2018-11-25T11:25:26.255Z,98.40
2018-11-25T11:26:26.224Z,97.00
2018-11-25T11:27:26.187Z,95.50
2018-11-25T11:28:26.154Z,95.90
2018-11-25T11:29:26.121Z,98.20
2018-11-25T11:30:26.089Z,98.50
2018-11-25T11:31:26.053Z,100.30
2018-11-25T11:32:26.020Z,104.70
2018-11-25T11:33:25.987Z,102.00
2018-11-25T11:34:25.953Z,107.50
2018-11-25T11:35:25.918Z,105.00
2018-11-25T11:36:25.888Z,104.20
2018-11-25T11:37:25.851Z,105.70
2018-11-25T11:38:25.819Z,108.60
2018-11-25T11:39:25.784Z,108.50
2018-11-25T11:40:25.750Z,110.00
2018-11-25T11:41:25.723Z,105.70
2018-11-25T11:42:28.666Z,106.00
2018-11-25T11:43:25.651Z,108.80
2018-11-25T11:44:25.617Z,104.20
2018-11-25T11:45:25.585Z,102.40
2018-11-25T11:46:25.551Z,102.20
2018-11-25T11:47:25.517Z,100.70
2018-11-25T11:48:25.482Z,99.80
2018-11-25T11:49:25.450Z,103.80
2018-11-25T11:50:25.418Z,102.30
2018-11-25T11:51:27.214Z,93.80
2018-11-25T11:52:25.352Z,102.10
2018-11-25T11:53:25.317Z,101.30
2018-11-25T11:54:25.285Z,102.60
2018-11-25T11:55:25.248Z,101.00
2018-11-25T11:56:25.216Z,100.60
2018-11-25T11:57:25.181Z,99.80
2018-11-25T11:58:25.149Z,104.00
2018-11-25T11:59:25.115Z,94.10
2018-11-25T12:00:25.083Z,94.30
2018-11-25T12:01:25.049Z,95.00
2018-11-25T12:02:31.346Z,101.00
2018-11-25T12:03:26.577Z,91.00
2018-11-25T12:04:24.948Z,97.40
2018-11-25T12:05:24.915Z,93.50
2018-11-25T12:06:24.882Z,91.20
2018-11-25T12:07:24.848Z,103.20
2018-11-25T12:08:24.814Z,96.40
2018-11-25T12:09:24.782Z,95.70
2018-11-25T12:10:24.748Z,97.50
2018-11-25T12:11:24.714Z,97.10
2018-11-25T12:12:24.681Z,100.40
2018-11-25T12:13:24.651Z,95.90
2018-11-25T12:14:24.615Z,97.00
2018-11-25T12:15:30.291Z,98.20
2018-11-25T12:16:24.549Z,102.00
2018-11-25T12:17:24.522Z,103.60
2018-11-25T12:18:24.481Z,96.00
2018-11-25T12:19:24.448Z,98.10
2018-11-25T12:20:24.415Z,92.40
2018-11-25T12:21:24.381Z,93.70
2018-11-25T12:22:24.349Z,91.10
2018-11-25T12:23:24.315Z,95.60
2018-11-25T12:24:24.285Z,95.30
2018-11-25T12:25:24.250Z,91.80
2018-11-25T12:26:24.217Z,90.10
2018-11-25T12:27:24.183Z,88.60
2018-11-25T12:28:24.149Z,87.70
2018-11-25T12:29:24.117Z,84.30
2018-11-25T12:30:24.084Z,84.30
2018-11-25T12:31:24.052Z,83.90
2018-11-25T12:32:24.022Z,83.50
2018-11-25T12:33:23.984Z,80.60
2018-11-25T12:34:23.951Z,82.10
2018-11-25T12:35:23.919Z,83.90
2018-11-25T12:36:23.888Z,82.80
2018-11-25T12:37:23.855Z,83.00
2018-11-25T12:38:23.821Z,79.80
2018-11-25T12:39:28.307Z,85.80
2018-11-25T12:40:23.752Z,79.20
2018-11-25T12:41:23.719Z,76.50
2018-11-25T12:42:23.687Z,77.80
2018-11-25T12:43:23.653Z,75.70
2018-11-25T12:44:29.165Z,76.40
2018-11-25T12:45:23.588Z,77.40
2018-11-25T12:46:23.554Z,81.70